createdAt,value
2022-12-14T00:00:45.312Z,-4.24
2022-12-14T00:01:49.148Z,-3.59
2022-12-14T00:02:45.654Z,-0.05
2022-12-14T00:03:46.198Z,-7.14
2022-12-14T00:04:45.208Z,-6.17
2022-12-14T00:05:49.046Z,-7.78
2022-12-14T00:06:45.254Z,-2.95
2022-12-14T00:07:45.191Z,-1.98
2022-12-14T00:08:45.190Z,0.92
2022-12-14T00:09:45.147Z,-1.02
2022-12-14T00:10:45.130Z,-0.37
2022-12-14T00:11:45.182Z,3.50
2022-12-14T00:12:45.145Z,-8.43
2022-12-14T00:13:45.124Z,-7.14
2022-12-14T00:14:45.153Z,5.11
2022-12-14T00:15:45.141Z,-1.98
2022-12-14T00:16:45.117Z,-6.82
2022-12-14T00:17:45.051Z,-0.05
2022-12-14T00:18:45.114Z,-4.24
2022-12-14T00:19:45.075Z,0.60
2022-12-14T00:20:45.044Z,1.88
2022-12-14T00:21:45.091Z,4.46
2022-12-14T00:22:44.993Z,3.82
2022-12-14T00:23:45.114Z,0.92
2022-12-14T00:24:45.009Z,-1.34
2022-12-14T00:25:44.997Z,-4.24
2022-12-14T00:26:44.978Z,4.14
2022-12-14T00:27:45.041Z,-1.02
2022-12-14T00:28:44.912Z,-3.92
2022-12-14T00:29:44.938Z,0.92
2022-12-14T00:30:44.987Z,0.60
2022-12-14T00:31:44.932Z,-1.02
2022-12-14T00:32:44.900Z,-0.05
2022-12-14T00:33:44.871Z,-1.66
2022-12-14T00:34:44.860Z,4.46
2022-12-14T00:35:44.863Z,-1.34
2022-12-14T00:36:44.854Z,-1.98
2022-12-14T00:37:44.847Z,-1.34
2022-12-14T00:38:44.860Z,-4.24
2022-12-14T00:39:44.796Z,-2.30
2022-12-14T00:40:44.765Z,4.14
2022-12-14T00:41:44.801Z,0.60
2022-12-14T00:42:44.769Z,3.17
2022-12-14T00:43:44.848Z,-0.69
2022-12-14T00:44:44.720Z,-4.56
2022-12-14T00:45:44.745Z,-0.69
2022-12-14T00:46:44.895Z,-2.63
2022-12-14T00:47:44.747Z,-2.63
2022-12-14T00:48:44.677Z,-3.27
2022-12-14T00:49:44.671Z,-2.30
2022-12-14T00:50:48.582Z,-0.05
2022-12-14T00:51:44.691Z,-7.46
2022-12-14T00:52:44.644Z,-1.34
2022-12-14T00:53:44.680Z,-3.59
2022-12-14T00:54:44.629Z,-6.82
2022-12-14T00:55:44.598Z,-2.30
2022-12-14T00:56:45.591Z,-1.66
2022-12-14T00:57:44.601Z,-2.63
2022-12-14T00:58:44.569Z,-1.34
2022-12-14T00:59:44.572Z,-6.49
2022-12-14T01:00:44.522Z,1.88
2022-12-14T01:01:44.651Z,-2.63
2022-12-14T01:02:44.573Z,4.14
2022-12-14T01:03:44.622Z,-2.30
2022-12-14T01:04:44.508Z,2.21
2022-12-14T01:05:49.092Z,-2.63
2022-12-14T01:06:45.478Z,-5.85
2022-12-14T01:07:44.443Z,-1.34
2022-12-14T01:08:44.472Z,2.21
2022-12-14T01:09:44.431Z,3.17
2022-12-14T01:10:44.433Z,-2.63
2022-12-14T01:11:44.404Z,-2.63
2022-12-14T01:12:44.444Z,0.27
2022-12-14T01:13:44.418Z,-2.30
2022-12-14T01:14:44.392Z,-0.37
2022-12-14T01:15:44.398Z,-2.95
2022-12-14T01:16:44.380Z,-6.49
2022-12-14T01:17:44.499Z,-1.66
2022-12-14T01:18:44.318Z,-7.78
2022-12-14T01:19:44.310Z,-1.34
2022-12-14T01:20:44.301Z,-0.05
2022-12-14T01:21:44.308Z,-3.27
2022-12-14T01:22:44.316Z,-1.34
2022-12-14T01:23:44.324Z,-1.34
2022-12-14T01:24:44.540Z,-2.30
2022-12-14T01:25:44.240Z,1.56
2022-12-14T01:26:44.252Z,-1.34
2022-12-14T01:27:44.284Z,1.24
2022-12-14T01:28:44.249Z,-2.30
2022-12-14T01:29:44.167Z,-2.63
2022-12-14T01:30:44.282Z,-1.98
2022-12-14T01:31:44.209Z,1.56
2022-12-14T01:32:44.190Z,-7.14
2022-12-14T01:33:44.183Z,-2.63
2022-12-14T01:34:44.308Z,-0.69
2022-12-14T01:35:44.303Z,2.85
2022-12-14T01:36:44.201Z,-12.62
2022-12-14T01:37:44.208Z,1.88
2022-12-14T01:38:44.211Z,-4.56
2022-12-14T01:39:44.107Z,-5.85
2022-12-14T01:40:44.222Z,-2.95
2022-12-14T01:41:44.124Z,-2.95
2022-12-14T01:42:44.256Z,-3.27
2022-12-14T01:43:44.146Z,-6.49
2022-12-14T01:44:43.994Z,-4.56
2022-12-14T01:45:43.993Z,0.60
2022-12-14T01:46:44.067Z,-7.14
2022-12-14T01:47:43.994Z,-1.34
2022-12-14T01:48:43.942Z,3.17
2022-12-14T01:49:43.944Z,-2.95
2022-12-14T01:50:43.959Z,0.27
2022-12-14T01:51:43.926Z,-1.98
2022-12-14T01:52:43.979Z,-7.78
2022-12-14T01:53:43.941Z,-1.98
2022-12-14T01:54:43.922Z,3.50
2022-12-14T01:55:45.273Z,-1.98
2022-12-14T01:56:43.866Z,-1.66
2022-12-14T01:57:43.863Z,-2.30
2022-12-14T01:58:43.848Z,-4.24
2022-12-14T01:59:43.845Z,-1.98
2022-12-14T02:00:43.807Z,3.17
2022-12-14T02:01:43.972Z,3.17
2022-12-14T02:02:43.936Z,-1.66
2022-12-14T02:03:43.830Z,-2.63
2022-12-14T02:04:43.799Z,-6.82
2022-12-14T02:05:43.778Z,-8.11
2022-12-14T02:06:43.748Z,-4.56
2022-12-14T02:07:43.904Z,-5.85
2022-12-14T02:08:44.730Z,-0.05
2022-12-14T02:09:43.730Z,-4.88
2022-12-14T02:10:43.703Z,-5.53
2022-12-14T02:11:43.682Z,-7.46
2022-12-14T02:12:43.672Z,-2.30
2022-12-14T02:13:43.640Z,-1.98
2022-12-14T02:14:43.665Z,-5.21
2022-12-14T02:15:43.653Z,2.53
2022-12-14T02:16:43.638Z,-3.27
2022-12-14T02:17:43.626Z,0.27
2022-12-14T02:18:43.579Z,-6.17
2022-12-14T02:19:43.578Z,-3.59
2022-12-14T02:20:43.607Z,-0.69
2022-12-14T02:21:43.565Z,-5.53
2022-12-14T02:22:43.593Z,-7.46
2022-12-14T02:23:43.591Z,-2.30
2022-12-14T02:24:43.537Z,-1.34
2022-12-14T02:25:43.511Z,2.53
2022-12-14T02:26:44.532Z,-2.63
2022-12-14T02:27:43.524Z,-2.30
2022-12-14T02:28:43.515Z,2.53
2022-12-14T02:29:43.457Z,-7.78
2022-12-14T02:30:43.446Z,-1.98
2022-12-14T02:31:43.517Z,-2.95
2022-12-14T02:32:43.428Z,-7.46
2022-12-14T02:33:43.429Z,-2.95
2022-12-14T02:34:43.381Z,-4.56
2022-12-14T02:35:43.433Z,-1.98
2022-12-14T02:36:43.384Z,-1.98
2022-12-14T02:37:43.378Z,3.50
2022-12-14T02:38:43.375Z,-5.53
2022-12-14T02:39:43.323Z,-0.69
2022-12-14T02:40:43.341Z,-2.95
2022-12-14T02:41:43.305Z,-4.56
2022-12-14T02:42:43.293Z,-4.24
2022-12-14T02:43:43.285Z,-2.63
2022-12-14T02:44:43.328Z,-0.37
2022-12-14T02:45:43.272Z,-2.95
2022-12-14T02:46:47.352Z,-7.46
2022-12-14T02:47:44.251Z,2.21
2022-12-14T02:48:43.275Z,-2.30
2022-12-14T02:49:43.238Z,0.60
2022-12-14T02:50:44.318Z,-1.98
2022-12-14T02:51:43.170Z,-1.66
2022-12-14T02:52:43.194Z,-3.59
2022-12-14T02:53:43.219Z,-2.95
2022-12-14T02:54:43.167Z,2.53
2022-12-14T02:55:43.140Z,3.17
2022-12-14T02:56:43.115Z,-1.98
2022-12-14T02:57:43.099Z,-2.95
2022-12-14T02:58:43.149Z,-2.95
2022-12-14T02:59:43.130Z,-2.95
2022-12-14T03:00:43.155Z,-2.95
2022-12-14T03:01:43.214Z,-4.24
2022-12-14T03:02:43.233Z,-0.37
2022-12-14T03:03:43.058Z,-4.56
2022-12-14T03:04:43.045Z,-2.95
2022-12-14T03:05:43.048Z,-1.98
2022-12-14T03:06:42.998Z,-1.02
2022-12-14T03:07:42.980Z,-7.46
2022-12-14T03:08:42.983Z,-4.24
2022-12-14T03:09:47.286Z,-1.02
2022-12-14T03:10:42.963Z,-6.82
2022-12-14T03:11:43.011Z,-3.27
2022-12-14T03:12:42.936Z,-7.14
2022-12-14T03:13:43.035Z,-0.37
2022-12-14T03:14:43.740Z,0.27
2022-12-14T03:15:42.940Z,-1.98
2022-12-14T03:16:43.000Z,-1.98
2022-12-14T03:17:42.864Z,-4.24
2022-12-14T03:18:43.885Z,-6.49
2022-12-14T03:19:42.856Z,-2.63
2022-12-14T03:20:42.861Z,-2.95
2022-12-14T03:21:42.849Z,1.88
2022-12-14T03:22:42.889Z,2.85
2022-12-14T03:23:42.958Z,-1.66
2022-12-14T03:24:42.797Z,-8.11
2022-12-14T03:25:42.805Z,-4.24
2022-12-14T03:26:47.193Z,-2.30
2022-12-14T03:27:42.837Z,-2.30
2022-12-14T03:28:42.809Z,2.53
2022-12-14T03:29:42.820Z,1.24
2022-12-14T03:30:59.797Z,-0.05
2022-12-14T03:31:43.786Z,-1.98
2022-12-14T03:32:43.675Z,-2.95
2022-12-14T03:33:42.728Z,-1.98
2022-12-14T03:34:42.668Z,-1.34
2022-12-14T03:35:42.660Z,-4.24
2022-12-14T03:36:42.674Z,-2.63
2022-12-14T03:37:42.669Z,2.53
2022-12-14T03:38:42.657Z,-3.27
2022-12-14T03:39:42.617Z,-1.66
2022-12-14T03:40:42.582Z,1.88
2022-12-14T03:41:42.573Z,2.21
2022-12-14T03:42:43.569Z,-1.66
2022-12-14T03:43:43.625Z,-4.56
2022-12-14T03:44:48.889Z,-5.85
2022-12-14T03:45:43.622Z,-7.78
2022-12-14T03:46:42.529Z,-2.30
2022-12-14T03:47:42.521Z,-1.66
2022-12-14T03:48:42.515Z,-2.30
2022-12-14T03:49:42.522Z,-2.30
2022-12-14T03:50:42.459Z,-6.49
2022-12-14T03:51:42.454Z,-2.95
2022-12-14T03:52:42.440Z,-2.63
2022-12-14T03:53:42.480Z,-2.30
2022-12-14T03:54:42.450Z,1.56
2022-12-14T03:55:42.394Z,1.88
2022-12-14T03:56:42.417Z,-2.30
2022-12-14T03:57:42.389Z,-0.37
2022-12-14T03:58:42.393Z,-2.30
2022-12-14T03:59:42.457Z,-0.37
2022-12-14T04:00:42.452Z,-3.27
2022-12-14T04:01:42.522Z,-1.98
2022-12-14T04:02:42.410Z,-2.95
2022-12-14T04:03:43.460Z,-3.27
2022-12-14T04:04:42.340Z,-6.49
2022-12-14T04:05:48.546Z,2.21
2022-12-14T04:06:43.278Z,-1.02
2022-12-14T04:07:42.265Z,0.27
2022-12-14T04:08:42.261Z,-3.27
2022-12-14T04:09:42.264Z,-2.30
2022-12-14T04:10:42.301Z,-1.02
2022-12-14T04:11:42.197Z,-2.30
2022-12-14T04:12:45.350Z,-5.53
2022-12-14T04:13:43.342Z,-1.02
2022-12-14T04:14:43.229Z,-2.95
2022-12-14T04:15:42.181Z,0.92
2022-12-14T04:16:42.281Z,-3.27
2022-12-14T04:17:42.132Z,-3.27
2022-12-14T04:18:42.180Z,-7.46
2022-12-14T04:19:42.127Z,-2.63
2022-12-14T04:20:42.128Z,-0.69
2022-12-14T04:21:42.075Z,-3.59
2022-12-14T04:22:42.078Z,-2.30
2022-12-14T04:23:42.073Z,-2.63
2022-12-14T04:24:42.064Z,-7.78
2022-12-14T04:25:42.078Z,-3.59
2022-12-14T04:26:42.067Z,-7.14
2022-12-14T04:27:42.104Z,-2.95
2022-12-14T04:28:42.015Z,0.92
2022-12-14T04:29:47.189Z,-0.05
2022-12-14T04:30:43.013Z,-2.30
2022-12-14T04:31:42.054Z,0.60
2022-12-14T04:32:42.063Z,1.24
2022-12-14T04:33:41.946Z,1.56
2022-12-14T04:34:41.948Z,-2.63
2022-12-14T04:35:41.938Z,-2.30
2022-12-14T04:36:41.928Z,-2.95
2022-12-14T04:37:41.898Z,-1.34
2022-12-14T04:38:41.885Z,-7.78
2022-12-14T04:39:41.865Z,-3.92
2022-12-14T04:40:41.868Z,-3.59
2022-12-14T04:41:41.869Z,-5.53
2022-12-14T04:42:41.836Z,-5.21
2022-12-14T04:43:41.807Z,0.92
2022-12-14T04:44:41.800Z,-0.69
2022-12-14T04:45:41.846Z,-3.59
2022-12-14T04:46:41.798Z,-1.34
2022-12-14T04:47:42.038Z,-2.63
2022-12-14T04:48:44.597Z,-2.63
2022-12-14T04:49:41.757Z,-2.95
2022-12-14T04:50:41.785Z,-7.46
2022-12-14T04:51:41.735Z,-1.02
2022-12-14T04:52:41.755Z,-2.95
2022-12-14T04:53:41.733Z,-2.63
2022-12-14T04:54:41.679Z,-2.30
2022-12-14T04:55:41.673Z,-3.59
2022-12-14T04:56:41.703Z,-7.14
2022-12-14T04:57:41.740Z,-2.63
2022-12-14T04:58:41.669Z,-2.63
2022-12-14T04:59:41.613Z,-3.92
2022-12-14T05:00:41.612Z,-4.56
2022-12-14T05:01:41.734Z,-2.30
2022-12-14T05:02:41.725Z,-6.82
2022-12-14T05:03:41.572Z,-2.30
2022-12-14T05:04:41.569Z,-6.17
2022-12-14T05:05:41.545Z,-7.14
2022-12-14T05:06:41.601Z,-3.27
2022-12-14T05:07:41.531Z,-1.02
2022-12-14T05:08:41.533Z,-8.43
2022-12-14T05:09:41.516Z,-3.27
2022-12-14T05:10:41.506Z,-2.63
2022-12-14T05:11:56.937Z,-3.59
2022-12-14T05:12:42.481Z,-2.30
2022-12-14T05:13:41.472Z,-1.02
2022-12-14T05:14:41.437Z,1.88
2022-12-14T05:15:41.507Z,1.24
2022-12-14T05:16:41.453Z,-2.95
2022-12-14T05:17:41.417Z,-3.27
2022-12-14T05:18:41.405Z,-3.59
2022-12-14T05:19:41.423Z,-5.85
2022-12-14T05:20:41.425Z,-2.63
2022-12-14T05:21:41.368Z,1.24
2022-12-14T05:22:41.392Z,-7.46
2022-12-14T05:23:41.337Z,-6.17
2022-12-14T05:24:41.327Z,-1.98
2022-12-14T05:25:41.313Z,-4.24
2022-12-14T05:26:41.330Z,-3.27
2022-12-14T05:27:41.289Z,-3.59
2022-12-14T05:28:44.711Z,-2.30
2022-12-14T05:29:42.320Z,-2.63
2022-12-14T05:30:41.286Z,-2.63
2022-12-14T05:31:41.404Z,-2.63
2022-12-14T05:32:41.248Z,-2.95
2022-12-14T05:33:41.218Z,1.24
2022-12-14T05:34:41.214Z,-2.63
2022-12-14T05:35:41.220Z,-1.02
2022-12-14T05:36:41.181Z,-2.63
2022-12-14T05:37:41.193Z,-3.27
2022-12-14T05:38:41.177Z,-3.59
2022-12-14T05:39:41.156Z,-4.56
2022-12-14T05:40:41.161Z,-3.92
2022-12-14T05:41:41.149Z,-6.17
2022-12-14T05:42:45.337Z,-4.56
2022-12-14T05:43:42.137Z,-4.56
2022-12-14T05:44:41.078Z,-2.63
2022-12-14T05:45:41.156Z,0.27
2022-12-14T05:46:41.049Z,-2.95
2022-12-14T05:47:41.075Z,-2.63
2022-12-14T05:48:44.789Z,-7.78
2022-12-14T05:49:44.794Z,-0.05
2022-12-14T05:50:41.007Z,-3.27
2022-12-14T05:51:41.008Z,-1.02
2022-12-14T05:52:40.981Z,-1.66
2022-12-14T05:53:40.967Z,-7.14
2022-12-14T05:54:40.960Z,-2.30
2022-12-14T05:55:40.952Z,-2.30
2022-12-14T05:56:40.966Z,-3.59
2022-12-14T05:57:41.005Z,2.21
2022-12-14T05:58:40.905Z,2.21
2022-12-14T05:59:40.908Z,-3.92
2022-12-14T06:00:40.884Z,-2.95
2022-12-14T06:01:40.933Z,-4.88
2022-12-14T06:02:41.122Z,-7.78
2022-12-14T06:03:40.876Z,-3.59
2022-12-14T06:04:40.887Z,-4.24
2022-12-14T06:05:40.842Z,-3.59
2022-12-14T06:06:42.519Z,-3.27
2022-12-14T06:07:40.870Z,-6.17
2022-12-14T06:08:40.789Z,1.24
2022-12-14T06:09:40.779Z,-2.63
2022-12-14T06:10:40.771Z,-2.30
2022-12-14T06:11:40.752Z,-3.27
2022-12-14T06:12:40.822Z,-1.98
2022-12-14T06:13:40.760Z,-0.05
2022-12-14T06:14:40.718Z,-2.30
2022-12-14T06:15:41.316Z,-5.21
2022-12-14T06:16:41.221Z,-1.66
2022-12-14T06:17:40.687Z,-3.59
2022-12-14T06:18:40.731Z,-1.98
2022-12-14T06:19:40.662Z,-6.17
2022-12-14T06:20:40.701Z,-7.14
2022-12-14T06:21:40.641Z,-4.56
2022-12-14T06:22:47.228Z,-5.21
2022-12-14T06:23:41.635Z,-7.14
2022-12-14T06:24:40.612Z,0.92
2022-12-14T06:25:40.594Z,-2.63
2022-12-14T06:26:40.572Z,-0.69
2022-12-14T06:27:40.564Z,-3.59
2022-12-14T06:28:40.602Z,-4.24
2022-12-14T06:29:40.561Z,1.88
2022-12-14T06:30:40.556Z,0.60
2022-12-14T06:31:40.518Z,-3.27
2022-12-14T06:32:40.554Z,-3.27
2022-12-14T06:33:40.612Z,-3.59
2022-12-14T06:34:42.381Z,-1.66
2022-12-14T06:35:40.470Z,-7.46
2022-12-14T06:36:40.531Z,-3.27
2022-12-14T06:37:40.468Z,-2.95
2022-12-14T06:38:40.444Z,-2.63
2022-12-14T06:39:40.721Z,-3.59
2022-12-14T06:40:40.424Z,-7.46
2022-12-14T06:41:40.403Z,0.60
2022-12-14T06:42:40.450Z,-0.37
2022-12-14T06:43:40.397Z,-3.59
2022-12-14T06:44:40.412Z,-3.92
2022-12-14T06:45:40.331Z,-3.27
2022-12-14T06:46:40.557Z,-6.82
2022-12-14T06:47:40.363Z,-7.14
2022-12-14T06:48:40.329Z,-3.27
2022-12-14T06:49:40.322Z,0.92
2022-12-14T06:50:40.363Z,-2.30
2022-12-14T06:51:40.266Z,-1.98
2022-12-14T06:52:40.252Z,-4.24
2022-12-14T06:53:40.290Z,-3.92
2022-12-14T06:54:40.282Z,-2.30
2022-12-14T06:55:40.255Z,-2.95
2022-12-14T06:56:40.213Z,-3.27
2022-12-14T06:57:40.266Z,1.24
2022-12-14T06:58:40.239Z,-6.17
2022-12-14T06:59:40.194Z,-1.98
2022-12-14T07:00:40.289Z,-2.30
2022-12-14T07:01:40.438Z,-3.92
2022-12-14T07:02:40.350Z,-7.14
2022-12-14T07:03:40.318Z,-2.63
2022-12-14T07:04:40.203Z,-5.21
2022-12-14T07:05:45.757Z,-2.63
2022-12-14T07:06:41.085Z,-3.27
2022-12-14T07:07:40.172Z,1.88
2022-12-14T07:08:40.409Z,-0.05
2022-12-14T07:09:40.239Z,-0.69
2022-12-14T07:10:40.208Z,-5.85
2022-12-14T07:11:40.128Z,2.53
2022-12-14T07:12:40.132Z,-6.17
2022-12-14T07:13:40.408Z,1.56
2022-12-14T07:14:40.112Z,-2.63
2022-12-14T07:15:40.073Z,-2.30
2022-12-14T07:16:40.060Z,1.24
2022-12-14T07:17:39.954Z,-3.59
2022-12-14T07:18:39.964Z,-3.59
2022-12-14T07:19:39.959Z,-1.02
2022-12-14T07:20:39.942Z,-1.66
2022-12-14T07:21:39.907Z,-2.30
2022-12-14T07:22:39.918Z,-2.95
2022-12-14T07:23:39.939Z,-0.05
2022-12-14T07:24:39.875Z,2.53
2022-12-14T07:25:39.859Z,-3.27
2022-12-14T07:26:39.854Z,-2.30
2022-12-14T07:27:39.847Z,-3.27
2022-12-14T07:28:39.853Z,-3.59
2022-12-14T07:29:39.836Z,-1.34
2022-12-14T07:30:39.874Z,-7.46
2022-12-14T07:31:39.863Z,-4.24
2022-12-14T07:32:39.809Z,-6.82
2022-12-14T07:33:39.798Z,-1.98
2022-12-14T07:34:39.743Z,1.88
2022-12-14T07:35:39.754Z,-2.95
2022-12-14T07:36:39.757Z,-3.27
2022-12-14T07:37:39.749Z,-1.02
2022-12-14T07:38:39.716Z,-5.85
2022-12-14T07:39:39.719Z,2.21
2022-12-14T07:40:39.678Z,-6.82
2022-12-14T07:41:39.669Z,-5.53
2022-12-14T07:42:39.677Z,-2.63
2022-12-14T07:43:39.651Z,-1.98
2022-12-14T07:44:39.683Z,0.27
2022-12-14T07:45:39.660Z,-2.95
2022-12-14T07:46:39.692Z,-1.98
2022-12-14T07:47:39.614Z,1.56
2022-12-14T07:48:39.591Z,1.24
2022-12-14T07:49:39.611Z,-3.27
2022-12-14T07:50:39.594Z,-7.14
2022-12-14T07:51:39.552Z,-0.69
2022-12-14T07:52:39.527Z,-6.49
2022-12-14T07:53:39.520Z,-6.82
2022-12-14T07:54:39.526Z,-3.27
2022-12-14T07:55:39.534Z,-0.69
2022-12-14T07:56:39.480Z,-6.49
2022-12-14T07:57:39.472Z,-2.30
2022-12-14T07:58:39.467Z,2.21
2022-12-14T07:59:39.467Z,-1.98
2022-12-14T08:00:39.472Z,-7.14
2022-12-14T08:01:39.607Z,-1.34
2022-12-14T08:02:39.558Z,-2.30
2022-12-14T08:03:39.405Z,-2.30
2022-12-14T08:04:39.501Z,2.53
2022-12-14T08:05:39.444Z,-7.46
2022-12-14T08:06:39.402Z,-2.95
2022-12-14T08:07:39.353Z,-4.88
2022-12-14T08:08:39.327Z,1.56
2022-12-14T08:09:39.331Z,-2.95
2022-12-14T08:10:40.651Z,-2.63
2022-12-14T08:11:39.344Z,-4.56
2022-12-14T08:12:39.301Z,2.21
2022-12-14T08:13:39.278Z,-6.49
2022-12-14T08:14:39.282Z,-6.17
2022-12-14T08:15:39.320Z,-1.02
2022-12-14T08:16:39.300Z,-0.05
2022-12-14T08:17:39.265Z,-5.53
2022-12-14T08:18:39.226Z,-1.34
2022-12-14T08:19:39.200Z,-1.98
2022-12-14T08:20:39.208Z,-6.82
2022-12-14T08:21:39.192Z,1.24
2022-12-14T08:22:39.219Z,2.21
2022-12-14T08:23:39.158Z,1.56
2022-12-14T08:24:39.133Z,-2.95
2022-12-14T08:25:39.516Z,-2.63
2022-12-14T08:26:39.125Z,-0.37
2022-12-14T08:27:39.132Z,-0.05
2022-12-14T08:28:39.155Z,-2.30
2022-12-14T08:29:39.075Z,-4.56
2022-12-14T08:30:39.077Z,-6.82
2022-12-14T08:31:39.402Z,0.27
2022-12-14T08:32:39.485Z,1.88
2022-12-14T08:33:39.061Z,-9.07
2022-12-14T08:34:39.041Z,-7.14
2022-12-14T08:35:39.023Z,-6.17
2022-12-14T08:36:39.014Z,-5.85
2022-12-14T08:37:44.174Z,2.53
2022-12-14T08:38:39.961Z,1.88
2022-12-14T08:39:38.963Z,-2.30
2022-12-14T08:40:39.007Z,-2.30
2022-12-14T08:41:38.953Z,-2.95
2022-12-14T08:42:39.004Z,2.53
2022-12-14T08:43:38.930Z,-1.34
2022-12-14T08:44:38.930Z,-6.17
2022-12-14T08:45:38.927Z,-2.95
2022-12-14T08:46:38.901Z,2.85
2022-12-14T08:47:38.892Z,-1.34
2022-12-14T08:48:38.926Z,2.53
2022-12-14T08:49:38.894Z,-3.59
2022-12-14T08:50:38.901Z,-5.53
2022-12-14T08:51:38.887Z,-1.02
2022-12-14T08:52:38.892Z,-5.21
2022-12-14T08:53:38.862Z,-1.98
2022-12-14T08:54:38.855Z,-1.98
2022-12-14T08:55:39.005Z,-1.66
2022-12-14T08:56:38.762Z,-2.30
2022-12-14T08:57:38.780Z,-1.02
2022-12-14T08:58:38.797Z,-0.69
2022-12-14T09:00:00.650Z,-6.17
2022-12-14T09:00:39.772Z,-0.05
2022-12-14T09:01:38.916Z,-4.88
2022-12-14T09:02:38.746Z,-0.05
2022-12-14T09:03:38.685Z,-1.98
2022-12-14T09:04:38.669Z,-1.66
2022-12-14T09:05:38.681Z,-1.66
2022-12-14T09:06:38.694Z,-3.27
2022-12-14T09:07:38.624Z,3.82
2022-12-14T09:08:38.607Z,-1.66
2022-12-14T09:09:38.598Z,-1.02
2022-12-14T09:10:38.611Z,-0.69
2022-12-14T09:11:38.612Z,-4.88
2022-12-14T09:12:38.645Z,-0.37
2022-12-14T09:13:38.558Z,-1.34
2022-12-14T09:14:38.571Z,-2.30
2022-12-14T09:15:38.540Z,0.92
2022-12-14T09:16:38.569Z,1.56
2022-12-14T09:17:38.509Z,-0.05
2022-12-14T09:18:38.477Z,-5.21
2022-12-14T09:19:38.475Z,0.92
2022-12-14T09:20:38.485Z,-4.56
2022-12-14T09:21:38.564Z,-4.88
2022-12-14T09:22:38.474Z,4.79
2022-12-14T09:23:38.448Z,0.27
2022-12-14T09:24:38.407Z,-3.92
2022-12-14T09:25:38.408Z,1.24
2022-12-14T09:26:38.439Z,0.92
2022-12-14T09:27:38.404Z,2.85
2022-12-14T09:28:38.404Z,0.27
2022-12-14T09:29:38.342Z,0.60
2022-12-14T09:30:38.368Z,1.88
2022-12-14T09:31:38.392Z,0.27
2022-12-14T09:32:38.340Z,-0.37
2022-12-14T09:33:38.372Z,0.60
2022-12-14T09:34:38.297Z,-0.37
2022-12-14T09:35:38.314Z,0.60
2022-12-14T09:36:38.289Z,-0.69
2022-12-14T09:37:38.275Z,-2.95
2022-12-14T09:38:38.279Z,4.79
2022-12-14T09:39:38.260Z,6.40
2022-12-14T09:40:38.233Z,-0.69
2022-12-14T09:41:38.220Z,-3.92
2022-12-14T09:42:38.227Z,-2.30
2022-12-14T09:43:38.634Z,4.46
2022-12-14T09:44:38.184Z,-4.24
2022-12-14T09:45:38.243Z,5.11
2022-12-14T09:46:38.154Z,4.14
2022-12-14T09:47:38.134Z,3.17
2022-12-14T09:48:38.168Z,4.79
2022-12-14T09:49:38.108Z,-3.59
2022-12-14T09:50:38.091Z,1.88
2022-12-14T09:51:38.182Z,1.24
2022-12-14T09:52:38.069Z,-2.30
2022-12-14T09:53:38.070Z,3.17
2022-12-14T09:54:38.116Z,-1.98
2022-12-14T09:55:38.136Z,6.07
2022-12-14T09:56:38.026Z,1.24
2022-12-14T09:57:38.005Z,-0.05
2022-12-14T09:58:38.004Z,3.82
2022-12-14T09:59:38.019Z,4.14
2022-12-14T10:00:38.072Z,-0.69
2022-12-14T10:01:38.052Z,0.27
2022-12-14T10:02:38.170Z,2.85
2022-12-14T10:03:38.254Z,0.92
2022-12-14T10:04:38.017Z,-1.34
2022-12-14T10:05:37.949Z,5.11
2022-12-14T10:06:37.963Z,3.82
2022-12-14T10:07:37.886Z,4.46
2022-12-14T10:08:37.877Z,3.17
2022-12-14T10:09:37.883Z,6.40
2022-12-14T10:10:38.183Z,10.26
2022-12-14T10:11:37.866Z,8.01
2022-12-14T10:12:37.823Z,-1.02
2022-12-14T10:13:37.800Z,5.11
2022-12-14T10:14:44.063Z,3.82
2022-12-14T10:15:38.846Z,8.97
2022-12-14T10:16:37.881Z,-3.59
2022-12-14T10:17:37.781Z,5.75
2022-12-14T10:19:38.731Z,4.79
2022-12-14T10:20:37.719Z,9.30
2022-12-14T10:21:37.744Z,-3.59
2022-12-14T10:22:37.734Z,12.84
2022-12-14T10:23:37.712Z,0.60
2022-12-14T10:24:37.671Z,4.46
2022-12-14T10:25:37.672Z,-0.05
2022-12-14T10:26:37.671Z,10.91
2022-12-14T10:27:54.178Z,-1.02
2022-12-14T10:28:38.627Z,11.55
2022-12-14T10:29:37.605Z,16.06
2022-12-14T10:30:37.613Z,11.87
2022-12-14T10:31:37.669Z,7.36
2022-12-14T10:32:37.602Z,8.01
2022-12-14T10:33:37.549Z,-2.95
2022-12-14T10:34:37.604Z,-0.37
2022-12-14T10:35:37.601Z,16.06
2022-12-14T10:36:37.518Z,8.65
2022-12-14T10:37:37.525Z,1.56
2022-12-14T10:38:37.495Z,8.97
2022-12-14T10:39:37.476Z,15.10
2022-12-14T10:40:37.500Z,20.90
2022-12-14T10:41:37.464Z,8.97
2022-12-14T10:42:37.569Z,13.49
2022-12-14T10:43:37.425Z,10.59
2022-12-14T10:44:37.502Z,9.94
2022-12-14T10:45:41.463Z,10.26
2022-12-14T10:46:37.529Z,9.94
2022-12-14T10:47:37.436Z,16.06
2022-12-14T10:48:37.412Z,19.61
2022-12-14T10:49:37.348Z,19.61
2022-12-14T10:50:37.369Z,11.55
2022-12-14T10:51:37.355Z,1.56
2022-12-14T10:52:37.336Z,21.22
2022-12-14T10:53:40.903Z,5.43
2022-12-14T10:54:37.307Z,10.91
2022-12-14T10:55:37.278Z,11.55
2022-12-14T10:56:37.359Z,15.42
2022-12-14T10:57:37.278Z,11.55
2022-12-14T10:58:37.266Z,22.19
2022-12-14T10:59:43.681Z,10.91
2022-12-14T11:00:38.230Z,18.32
2022-12-14T11:01:37.281Z,7.69
2022-12-14T11:02:37.288Z,12.84
2022-12-14T11:03:37.219Z,11.55
2022-12-14T11:04:37.192Z,12.84
2022-12-14T11:05:37.507Z,23.15
2022-12-14T11:06:37.146Z,22.83
2022-12-14T11:07:37.149Z,11.87
2022-12-14T11:08:37.408Z,2.85
2022-12-14T11:09:37.090Z,23.15
2022-12-14T11:10:37.130Z,12.84
2022-12-14T11:11:37.121Z,24.44
2022-12-14T11:12:37.128Z,8.01
2022-12-14T11:13:37.208Z,1.88
2022-12-14T11:14:37.113Z,2.21
2022-12-14T11:15:37.063Z,16.06
2022-12-14T11:16:37.612Z,2.21
2022-12-14T11:17:37.150Z,12.84
2022-12-14T11:18:37.003Z,2.21
2022-12-14T11:19:36.997Z,21.87
2022-12-14T11:20:36.954Z,0.60
2022-12-14T11:21:36.948Z,2.53
2022-12-14T11:22:36.944Z,6.40
2022-12-14T11:23:37.014Z,3.50
2022-12-14T11:24:36.908Z,24.77
2022-12-14T11:25:36.886Z,8.65
2022-12-14T11:26:36.946Z,17.68
2022-12-14T11:27:36.876Z,25.41
2022-12-14T11:28:38.247Z,21.87
2022-12-14T11:29:36.858Z,14.45
2022-12-14T11:30:36.845Z,15.42
2022-12-14T11:31:36.853Z,14.13
2022-12-14T11:32:36.858Z,3.17
2022-12-14T11:33:36.789Z,14.78
2022-12-14T11:34:36.783Z,27.99
2022-12-14T11:35:36.887Z,17.68
2022-12-14T11:36:36.788Z,7.69
2022-12-14T11:37:36.787Z,26.05
2022-12-14T11:38:36.751Z,15.42
2022-12-14T11:39:36.703Z,3.17
2022-12-14T11:40:36.739Z,15.10
2022-12-14T11:41:36.751Z,20.25
2022-12-14T11:42:36.687Z,9.94
2022-12-14T11:43:36.664Z,15.74
2022-12-14T11:44:36.737Z,27.34
2022-12-14T11:45:36.655Z,18.96
2022-12-14T11:46:41.211Z,5.75
2022-12-14T11:47:37.607Z,15.74
2022-12-14T11:48:36.608Z,26.38
2022-12-14T11:49:36.638Z,3.17
2022-12-14T11:50:36.646Z,15.10
2022-12-14T11:51:36.595Z,28.63
2022-12-14T11:52:36.706Z,15.42
2022-12-14T11:53:36.540Z,27.02
2022-12-14T11:54:36.584Z,15.42
2022-12-14T11:55:36.512Z,6.72
2022-12-14T11:56:36.520Z,16.39
2022-12-14T11:57:36.516Z,15.74
2022-12-14T11:58:36.498Z,15.74
2022-12-14T11:59:36.457Z,10.91
2022-12-14T12:00:36.464Z,15.10
2022-12-14T12:01:36.491Z,15.74
2022-12-14T12:02:36.560Z,15.74
2022-12-14T12:03:36.478Z,27.99
2022-12-14T12:04:36.430Z,16.06
2022-12-14T12:05:36.394Z,17.68
2022-12-14T12:06:36.368Z,10.26
2022-12-14T12:07:36.354Z,15.74
2022-12-14T12:08:36.380Z,4.14
2022-12-14T12:09:36.329Z,13.49
2022-12-14T12:10:36.340Z,16.06
2022-12-14T12:11:36.310Z,10.59
2022-12-14T12:12:36.313Z,8.33
2022-12-14T12:13:36.314Z,18.32
2022-12-14T12:14:36.291Z,16.06
2022-12-14T12:15:36.361Z,16.06
2022-12-14T12:16:36.239Z,5.75
2022-12-14T12:17:36.256Z,19.29
2022-12-14T12:18:37.581Z,12.84
2022-12-14T12:19:36.199Z,17.68
2022-12-14T12:20:36.239Z,28.31
2022-12-14T12:21:36.181Z,26.05
2022-12-14T12:22:36.232Z,24.77
2022-12-14T12:23:36.202Z,4.46
2022-12-14T12:24:41.654Z,24.12
2022-12-14T12:25:37.755Z,16.39
2022-12-14T12:26:36.118Z,4.14
2022-12-14T12:27:36.848Z,24.77
2022-12-14T12:28:36.148Z,16.39
2022-12-14T12:29:36.126Z,25.73
2022-12-14T12:30:36.070Z,16.71
2022-12-14T12:31:36.144Z,14.78
2022-12-14T12:32:36.056Z,17.35
2022-12-14T12:33:36.041Z,16.06
2022-12-14T12:34:36.031Z,18.96
2022-12-14T12:35:35.995Z,9.30
2022-12-14T12:36:35.978Z,16.06
2022-12-14T12:37:35.981Z,27.34
2022-12-14T12:38:40.240Z,27.67
2022-12-14T12:39:35.941Z,16.06
2022-12-14T12:40:35.949Z,7.36
2022-12-14T12:41:35.929Z,17.68
2022-12-14T12:42:35.904Z,4.46
2022-12-14T12:43:35.888Z,15.74
2022-12-14T12:44:35.907Z,28.31
2022-12-14T12:45:35.854Z,13.81
2022-12-14T12:46:48.410Z,4.79
2022-12-14T12:47:46.578Z,11.87
2022-12-14T12:48:36.883Z,15.74
2022-12-14T12:49:35.835Z,13.49
2022-12-14T12:50:35.790Z,14.78
2022-12-14T12:51:35.831Z,16.06
2022-12-14T12:52:35.771Z,2.53
2022-12-14T12:53:35.762Z,12.20
2022-12-14T12:54:35.757Z,25.09
2022-12-14T12:55:35.817Z,15.10
2022-12-14T12:56:35.723Z,27.67
2022-12-14T12:57:35.727Z,14.78
2022-12-14T12:58:35.908Z,28.63
2022-12-14T12:59:35.698Z,27.34